Time;durP1;ratioP1;P1;durP2;ratioP2;P2;SDS_P1;SDS_P2;PMS_P1;PMS_P2;Temp;Humidity;BMP_temperature;BMP_pressure;BME280_temperature;BME280_humidity;BME280_pressure;Samples;Min_cycle;Max_cycle;Signal;HPM_P1;HPM_P2
2022/01/05 00:01:40;;;;;;;6.27;3.53;;;;;;;;;;770405;182;919782;-64
2022/01/05 00:04:06;;;;;;;4.07;3.30;;;;;;;;;;765429;182;919525;-64
2022/01/05 00:06:32;;;;;;;4.50;3.97;;;;;;;;;;769216;182;918048;-64
2022/01/05 00:08:58;;;;;;;5.00;2.83;;;;;;;;;;765788;182;921720;-64
2022/01/05 00:11:23;;;;;;;5.60;4.15;;;;;;;;;;767491;179;919972;-64
2022/01/05 00:13:49;;;;;;;7.30;4.63;;;;;;;;;;774032;182;920264;-63
2022/01/05 00:16:15;;;;;;;4.55;3.42;;;;;;;;;;768265;183;923387;-65
2022/01/05 00:18:41;;;;;;;6.37;4.33;;;;;;;;;;766973;183;919356;-64
2022/01/05 00:21:07;;;;;;;6.03;4.93;;;;;;;;;;763252;183;922369;-64
2022/01/05 00:23:33;;;;;;;7.63;5.20;;;;;;;;;;770112;183;914161;-65
2022/01/05 00:26:03;;;;;;;7.73;5.00;;;;;;;;;;768932;183;916034;-64
2022/01/05 00:28:24;;;;;;;6.60;4.53;;;;;;;;;;764426;183;917691;-64
2022/01/05 00:30:50;;;;;;;9.17;5.60;;;;;;;;;;768089;182;913259;-64
2022/01/05 00:33:17;;;;;;;6.97;5.13;;;;;;;;;;769996;183;918806;-63
2022/01/05 00:35:42;;;;;;;9.40;6.03;;;;;;;;;;765446;183;919962;-63
2022/01/05 00:38:08;;;;;;;7.47;6.30;;;;;;;;;;768104;183;914870;-63
2022/01/05 00:40:34;;;;;;;9.07;6.63;;;;;;;;;;766474;180;917397;-64
2022/01/05 00:43:00;;;;;;;10.40;6.87;;;;;;;;;;767727;182;918538;-64
2022/01/05 00:45:25;;;;;;;7.83;5.83;;;;;;;;;;762006;182;921506;-63
2022/01/05 00:47:51;;;;;;;8.40;6.27;;;;;;;;;;759632;184;915931;-63
2022/01/05 00:50:17;;;;;;;7.90;6.00;;;;;;;;;;758654;184;919903;-64
2022/01/05 00:52:43;;;;;;;6.47;5.27;;;;;;;;;;759955;184;918646;-64
2022/01/05 00:55:09;;;;;;;6.65;5.50;;;;;;;;;;765894;181;915753;-64
2022/01/05 00:57:35;;;;;;;9.23;6.00;;;;;;;;;;765382;182;915126;-64
2022/01/05 01:00:01;;;;;;;9.37;5.53;;;;;;;;;;761525;182;917007;-64
2022/01/05 01:02:26;;;;;;;7.73;6.20;;;;;;;;;;771543;182;916628;-63
2022/01/05 01:04:52;;;;;;;8.33;6.80;;;;;;;;;;767935;182;915408;-63
2022/01/05 01:07:18;;;;;;;8.20;6.17;;;;;;;;;;768330;182;919465;-62
2022/01/05 01:09:44;;;;;;;7.60;5.87;;;;;;;;;;768722;182;919239;-61
2022/01/05 01:12:10;;;;;;;9.07;6.93;;;;;;;;;;762483;183;918386;-62
2022/01/05 01:14:36;;;;;;;8.00;6.33;;;;;;;;;;758917;184;915878;-61
2022/01/05 01:17:02;;;;;;;7.40;6.00;;;;;;;;;;766317;182;964158;-62
2022/01/05 01:19:28;;;;;;;9.97;6.27;;;;;;;;;;774116;183;916846;-62
2022/01/05 01:21:55;;;;;;;8.50;6.30;;;;;;;;;;768581;183;921962;-62
2022/01/05 01:24:20;;;;;;;7.63;6.40;;;;;;;;;;766242;182;1016403;-63
2022/01/05 01:26:45;;;;;;;7.10;5.93;;;;;;;;;;772682;182;916172;-62
2022/01/05 01:29:11;;;;;;;9.40;6.53;;;;;;;;;;761647;182;1006290;-62
2022/01/05 01:31:37;;;;;;;8.60;6.00;;;;;;;;;;769240;182;919099;-63
2022/01/05 01:34:03;;;;;;;7.60;5.80;;;;;;;;;;773156;182;918602;-62
2022/01/05 01:36:29;;;;;;;7.73;6.80;;;;;;;;;;768650;182;918527;-62
2022/01/05 01:38:55;;;;;;;7.83;6.67;;;;;;;;;;767092;183;947594;-63
2022/01/05 01:41:20;;;;;;;8.73;6.37;;;;;;;;;;766107;182;921227;-63
2022/01/05 01:43:46;;;;;;;8.83;6.90;;;;;;;;;;772262;182;917958;-63
2022/01/05 01:46:12;;;;;;;7.40;6.50;;;;;;;;;;768298;183;919568;-63
2022/01/05 01:48:38;;;;;;;9.33;6.53;;;;;;;;;;766408;183;921181;-62
2022/01/05 01:51:04;;;;;;;9.10;6.60;;;;;;;;;;768387;183;914576;-62
2022/01/05 01:53:30;;;;;;;6.80;5.30;;;;;;;;;;765707;182;1015488;-63
2022/01/05 01:55:55;;;;;;;12.23;6.87;;;;;;;;;;767625;182;916679;-63
2022/01/05 01:58:21;;;;;;;8.80;6.47;;;;;;;;;;773948;182;912233;-62
2022/01/05 02:00:47;;;;;;;8.80;6.90;;;;;;;;;;767385;179;920091;-62
2022/01/05 02:03:14;;;;;;;10.40;6.70;;;;;;;;;;765875;182;909318;-63
2022/01/05 02:05:39;;;;;;;11.67;7.67;;;;;;;;;;768624;182;916453;-62
2022/01/05 02:08:05;;;;;;;8.57;6.37;;;;;;;;;;757462;184;915330;-62
2022/01/05 02:10:31;;;;;;;8.87;5.87;;;;;;;;;;761171;183;915706;-62
2022/01/05 02:12:56;;;;;;;9.00;6.70;;;;;;;;;;763920;183;915155;-61
2022/01/05 02:15:22;;;;;;;8.10;6.83;;;;;;;;;;772549;183;918446;-62
2022/01/05 02:17:55;;;;;;;7.30;5.70;;;;;;;;;;766210;183;920527;-63
2022/01/05 02:20:16;;;;;;;9.45;6.93;;;;;;;;;;765707;180;914805;-62
2022/01/05 02:22:42;;;;;;;10.07;7.30;;;;;;;;;;770532;181;918554;-63
2022/01/05 02:25:07;;;;;;;11.30;7.10;;;;;;;;;;767062;182;918143;-62
2022/01/05 02:27:33;;;;;;;13.20;8.17;;;;;;;;;;760552;182;910787;-63
2022/01/05 02:29:59;;;;;;;9.67;7.53;;;;;;;;;;765986;183;921735;-62
2022/01/05 02:32:25;;;;;;;8.82;6.70;;;;;;;;;;769118;183;913299;-62
2022/01/05 02:34:51;;;;;;;9.40;7.20;;;;;;;;;;763758;182;918107;-62
2022/01/05 02:37:17;;;;;;;7.80;6.80;;;;;;;;;;764799;182;920513;-63
2022/01/05 02:39:42;;;;;;;7.97;6.10;;;;;;;;;;770097;183;920910;-63
2022/01/05 02:42:08;;;;;;;7.83;6.63;;;;;;;;;;767576;182;914820;-62
2022/01/05 02:44:34;;;;;;;7.25;5.62;;;;;;;;;;765005;182;912876;-63
2022/01/05 02:47:00;;;;;;;9.87;6.40;;;;;;;;;;775085;182;915741;-62
2022/01/05 02:49:26;;;;;;;8.40;6.60;;;;;;;;;;768891;182;917508;-62
2022/01/05 02:51:52;;;;;;;8.27;6.23;;;;;;;;;;765907;183;919009;-62
2022/01/05 02:54:18;;;;;;;8.98;6.82;;;;;;;;;;768564;183;921572;-62
2022/01/05 02:56:44;;;;;;;7.97;6.27;;;;;;;;;;772200;177;920264;-63
2022/01/05 02:59:10;;;;;;;7.83;6.37;;;;;;;;;;766225;183;914547;-62
2022/01/05 03:01:38;;;;;;;8.85;5.90;;;;;;;;;;760021;183;952164;-62
2022/01/05 03:04:02;;;;;;;8.73;6.27;;;;;;;;;;762705;184;1021850;-63
2022/01/05 03:06:28;;;;;;;9.47;6.77;;;;;;;;;;748067;184;916225;-65
2022/01/05 03:08:53;;;;;;;7.67;6.10;;;;;;;;;;757120;184;915745;-63
2022/01/05 03:11:19;;;;;;;9.30;6.90;;;;;;;;;;758231;184;915591;-62
2022/01/05 03:13:46;;;;;;;7.70;5.67;;;;;;;;;;758505;184;919884;-63
2022/01/05 03:16:11;;;;;;;12.00;6.07;;;;;;;;;;736238;187;918972;-63
2022/01/05 03:18:37;;;;;;;7.37;5.77;;;;;;;;;;762103;185;919865;-62
2022/01/05 03:21:03;;;;;;;7.17;5.93;;;;;;;;;;755572;185;920249;-63
2022/01/05 03:23:28;;;;;;;8.80;5.77;;;;;;;;;;752396;184;918410;-63
2022/01/05 03:25:54;;;;;;;8.67;6.17;;;;;;;;;;755732;184;918973;-63
2022/01/05 03:28:20;;;;;;;8.37;6.23;;;;;;;;;;762720;184;918646;-63
2022/01/05 03:30:46;;;;;;;7.80;6.20;;;;;;;;;;734799;190;920019;-63
2022/01/05 03:33:12;;;;;;;12.02;6.18;;;;;;;;;;756105;183;919325;-63
2022/01/05 03:35:39;;;;;;;8.80;7.23;;;;;;;;;;759630;184;919232;-63
2022/01/05 03:38:05;;;;;;;8.57;7.57;;;;;;;;;;762686;184;919134;-63
2022/01/05 03:40:30;;;;;;;8.47;6.67;;;;;;;;;;737627;190;918522;-63
2022/01/05 03:42:56;;;;;;;11.40;8.60;;;;;;;;;;773100;182;918999;-62
2022/01/05 03:45:22;;;;;;;7.90;6.87;;;;;;;;;;766520;182;919193;-62
2022/01/05 03:47:48;;;;;;;9.90;7.17;;;;;;;;;;765204;182;919875;-63
2022/01/05 03:50:14;;;;;;;10.93;6.90;;;;;;;;;;764765;179;916589;-63
2022/01/05 03:52:40;;;;;;;9.10;7.23;;;;;;;;;;775314;180;918245;-63
2022/01/05 03:55:06;;;;;;;7.83;6.60;;;;;;;;;;764741;182;919628;-64
2022/01/05 03:57:32;;;;;;;7.47;5.77;;;;;;;;;;765695;182;919017;-64
2022/01/05 03:59:58;;;;;;;9.70;7.20;;;;;;;;;;771904;182;919217;-63
2022/01/05 04:02:24;;;;;;;9.53;7.53;;;;;;;;;;765167;182;918803;-63
2022/01/05 04:04:50;;;;;;;10.27;7.40;;;;;;;;;;765924;182;921083;-64
2022/01/05 04:07:16;;;;;;;9.80;8.60;;;;;;;;;;771182;180;919019;-64
2022/01/05 04:09:41;;;;;;;9.27;6.77;;;;;;;;;;766314;183;918190;-65
2022/01/05 04:12:08;;;;;;;10.30;7.23;;;;;;;;;;763845;181;1024140;-63
2022/01/05 04:14:33;;;;;;;8.47;6.50;;;;;;;;;;766357;182;925578;-64
2022/01/05 04:16:59;;;;;;;10.60;7.00;;;;;;;;;;771959;180;922114;-64
2022/01/05 04:19:25;;;;;;;8.90;7.40;;;;;;;;;;767712;183;917025;-65
2022/01/05 04:21:51;;;;;;;9.88;7.43;;;;;;;;;;763886;183;919817;-67
2022/01/05 04:24:17;;;;;;;8.63;6.40;;;;;;;;;;769428;183;916712;-64
2022/01/05 04:26:43;;;;;;;8.30;6.63;;;;;;;;;;767145;182;914107;-64
2022/01/05 04:29:08;;;;;;;9.33;7.07;;;;;;;;;;766072;183;914939;-63
2022/01/05 04:31:34;;;;;;;8.63;7.30;;;;;;;;;;768721;182;897442;-63
2022/01/05 04:34:00;;;;;;;12.40;7.10;;;;;;;;;;766810;182;918981;-64
2022/01/05 04:36:26;;;;;;;9.87;7.37;;;;;;;;;;765367;181;919258;-64
2022/01/05 04:38:52;;;;;;;11.12;7.90;;;;;;;;;;771622;182;919325;-64
2022/01/05 04:41:18;;;;;;;10.07;6.90;;;;;;;;;;766056;182;969035;-63
2022/01/05 04:43:43;;;;;;;8.70;6.77;;;;;;;;;;766863;181;917778;-64
2022/01/05 04:46:09;;;;;;;9.27;7.30;;;;;;;;;;768450;182;939980;-63
2022/01/05 04:48:35;;;;;;;11.00;7.00;;;;;;;;;;773598;182;921807;-64
2022/01/05 04:51:01;;;;;;;12.07;8.30;;;;;;;;;;766531;182;919975;-64
2022/01/05 04:53:27;;;;;;;9.17;6.40;;;;;;;;;;765818;182;919125;-63
2022/01/05 04:55:53;;;;;;;10.40;7.60;;;;;;;;;;772702;182;919153;-62
2022/01/05 04:58:18;;;;;;;9.53;6.80;;;;;;;;;;771312;182;625453;-63
2022/01/05 05:00:44;;;;;;;11.80;7.40;;;;;;;;;;765249;182;919274;-63
2022/01/05 05:03:10;;;;;;;11.53;7.53;;;;;;;;;;772766;182;918994;-63
2022/01/05 05:05:36;;;;;;;10.70;8.17;;;;;;;;;;766847;182;918557;-63
2022/01/05 05:08:02;;;;;;;10.27;6.80;;;;;;;;;;766263;182;917968;-63
2022/01/05 05:10:28;;;;;;;10.10;8.03;;;;;;;;;;766233;182;919441;-63
2022/01/05 05:12:53;;;;;;;10.50;7.70;;;;;;;;;;765187;183;919356;-63
2022/01/05 05:15:19;;;;;;;10.13;7.70;;;;;;;;;;766531;183;943812;-63
2022/01/05 05:17:45;;;;;;;9.50;6.80;;;;;;;;;;766655;182;919168;-63
2022/01/05 05:20:11;;;;;;;12.00;7.57;;;;;;;;;;773844;182;918666;-64
2022/01/05 05:22:37;;;;;;;11.03;8.50;;;;;;;;;;767220;182;920021;-63
2022/01/05 05:25:03;;;;;;;12.53;8.50;;;;;;;;;;765594;183;918708;-63
2022/01/05 05:27:29;;;;;;;11.23;8.00;;;;;;;;;;771391;182;918294;-63
2022/01/05 05:29:54;;;;;;;11.67;7.80;;;;;;;;;;765735;182;918825;-63
2022/01/05 05:32:20;;;;;;;11.57;7.83;;;;;;;;;;769274;183;919618;-63
2022/01/05 05:34:46;;;;;;;10.10;7.90;;;;;;;;;;767833;182;919695;-63
2022/01/05 05:37:12;;;;;;;9.70;7.20;;;;;;;;;;770002;184;625894;-63
2022/01/05 05:39:38;;;;;;;10.37;7.90;;;;;;;;;;762759;183;919534;-63
2022/01/05 05:42:04;;;;;;;11.38;7.80;;;;;;;;;;763933;183;1006306;-63
2022/01/05 05:44:30;;;;;;;12.13;8.23;;;;;;;;;;772915;182;919285;-63
2022/01/05 05:46:56;;;;;;;12.60;9.30;;;;;;;;;;772508;182;635503;-63
2022/01/05 05:49:22;;;;;;;11.47;8.40;;;;;;;;;;771182;182;625076;-63
2022/01/05 05:51:47;;;;;;;13.00;8.60;;;;;;;;;;771516;182;919383;-63
2022/01/05 05:54:13;;;;;;;14.83;9.53;;;;;;;;;;770521;183;639989;-64
2022/01/05 05:56:39;;;;;;;13.23;9.77;;;;;;;;;;772248;182;631653;-65
2022/01/05 05:59:05;;;;;;;12.60;9.13;;;;;;;;;;776232;182;624899;-64
2022/01/05 06:01:31;;;;;;;11.80;9.00;;;;;;;;;;769222;182;915879;-64
2022/01/05 06:03:57;;;;;;;15.73;10.60;;;;;;;;;;766446;182;1018142;-64
2022/01/05 06:06:22;;;;;;;15.77;10.93;;;;;;;;;;765875;180;1021083;-64
2022/01/05 06:08:48;;;;;;;15.07;10.40;;;;;;;;;;772214;182;918921;-64
2022/01/05 06:11:14;;;;;;;16.70;11.90;;;;;;;;;;766386;182;919676;-66
2022/01/05 06:13:40;;;;;;;18.10;11.53;;;;;;;;;;767852;182;919243;-64
2022/01/05 06:16:06;;;;;;;16.77;11.50;;;;;;;;;;771678;182;918252;-64
2022/01/05 06:18:32;;;;;;;15.63;11.50;;;;;;;;;;766389;182;919911;-66
2022/01/05 06:20:57;;;;;;;17.03;12.20;;;;;;;;;;766290;183;919613;-65
2022/01/05 06:23:23;;;;;;;18.57;14.30;;;;;;;;;;771041;182;918158;-64
2022/01/05 06:25:49;;;;;;;18.03;14.10;;;;;;;;;;765948;182;918981;-64
2022/01/05 06:28:15;;;;;;;21.63;14.97;;;;;;;;;;765436;182;919758;-64
2022/01/05 06:30:41;;;;;;;19.43;13.07;;;;;;;;;;765368;182;1124161;-63
2022/01/05 06:33:07;;;;;;;23.50;15.87;;;;;;;;;;772174;182;918850;-64
2022/01/05 06:35:33;;;;;;;19.23;13.37;;;;;;;;;;766758;182;919597;-64
2022/01/05 06:37:58;;;;;;;26.70;15.13;;;;;;;;;;766607;183;919138;-63
2022/01/05 06:40:24;;;;;;;21.97;13.80;;;;;;;;;;770427;182;1030274;-64
2022/01/05 06:42:50;;;;;;;20.85;15.80;;;;;;;;;;765724;182;918257;-64
2022/01/05 06:45:16;;;;;;;25.70;15.63;;;;;;;;;;766169;182;918566;-64
2022/01/05 06:47:42;;;;;;;21.23;15.03;;;;;;;;;;771305;183;918300;-63
2022/01/05 06:50:08;;;;;;;17.47;13.40;;;;;;;;;;763917;182;919669;-64
2022/01/05 06:52:34;;;;;;;21.03;15.23;;;;;;;;;;764297;183;919362;-64
2022/01/05 06:55:00;;;;;;;21.27;15.23;;;;;;;;;;766845;183;969301;-62
2022/01/05 06:57:25;;;;;;;23.90;16.37;;;;;;;;;;766467;184;919621;-64
2022/01/05 06:59:51;;;;;;;22.10;16.30;;;;;;;;;;766317;182;919185;-64
2022/01/05 07:02:17;;;;;;;22.27;15.93;;;;;;;;;;768265;182;919241;-64
2022/01/05 07:04:43;;;;;;;23.93;16.63;;;;;;;;;;773711;182;920310;-64
2022/01/05 07:07:09;;;;;;;26.87;18.90;;;;;;;;;;766861;181;918686;-64
2022/01/05 07:09:35;;;;;;;25.47;17.10;;;;;;;;;;767831;182;919416;-64
2022/01/05 07:12:01;;;;;;;27.47;17.73;;;;;;;;;;771488;180;1081383;-64
2022/01/05 07:14:26;;;;;;;26.40;18.30;;;;;;;;;;764633;182;919639;-64
2022/01/05 07:16:52;;;;;;;24.40;18.00;;;;;;;;;;765434;182;918606;-64
2022/01/05 07:19:20;;;;;;;24.73;17.27;;;;;;;;;;766803;183;919681;-64
2022/01/05 07:21:44;;;;;;;26.95;18.17;;;;;;;;;;764004;181;920188;-64
2022/01/05 07:24:12;;;;;;;24.77;17.77;;;;;;;;;;766737;182;919218;-64
2022/01/05 07:26:36;;;;;;;23.53;18.80;;;;;;;;;;767415;182;918279;-64
2022/01/05 07:29:01;;;;;;;26.73;16.83;;;;;;;;;;771613;182;918647;-64
2022/01/05 07:31:27;;;;;;;23.27;16.67;;;;;;;;;;766678;183;919301;-64
2022/01/05 07:33:53;;;;;;;27.47;17.50;;;;;;;;;;766864;183;919618;-64
2022/01/05 07:36:19;;;;;;;30.03;19.20;;;;;;;;;;773212;183;918412;-64
2022/01/05 07:38:45;;;;;;;22.97;17.10;;;;;;;;;;765700;182;930045;-65
2022/01/05 07:41:11;;;;;;;25.30;15.90;;;;;;;;;;766118;183;920130;-65
2022/01/05 07:43:37;;;;;;;24.93;17.77;;;;;;;;;;771041;182;919114;-64
2022/01/05 07:46:02;;;;;;;26.80;17.40;;;;;;;;;;766577;183;920228;-68
2022/01/05 07:48:28;;;;;;;29.92;18.35;;;;;;;;;;765216;182;1163988;-64
2022/01/05 07:50:54;;;;;;;30.93;18.50;;;;;;;;;;770986;182;918565;-65
2022/01/05 07:53:21;;;;;;;31.07;20.43;;;;;;;;;;765759;183;917879;-65
2022/01/05 07:55:46;;;;;;;28.63;20.03;;;;;;;;;;750844;184;919056;-64
2022/01/05 07:58:12;;;;;;;31.23;19.10;;;;;;;;;;764431;183;919001;-64
2022/01/05 08:00:37;;;;;;;32.40;19.47;;;;;;;;;;771063;183;928905;-64
2022/01/05 08:03:03;;;;;;;30.90;20.80;;;;;;;;;;766429;182;920221;-64
2022/01/05 08:05:29;;;;;;;28.20;20.87;;;;;;;;;;766207;182;918808;-64
2022/01/05 08:07:55;;;;;;;32.60;22.03;;;;;;;;;;769494;182;1016613;-64
2022/01/05 08:10:21;;;;;;;36.70;24.03;;;;;;;;;;765126;183;1018208;-64
2022/01/05 08:12:47;;;;;;;36.03;23.83;;;;;;;;;;768112;182;916552;-64
2022/01/05 08:15:14;;;;;;;30.77;21.80;;;;;;;;;;772129;180;621212;-63
2022/01/05 08:17:40;;;;;;;32.07;22.60;;;;;;;;;;771487;183;628879;-64
2022/01/05 08:20:06;;;;;;;33.53;22.23;;;;;;;;;;771865;180;636547;-64
2022/01/05 08:22:31;;;;;;;37.87;23.77;;;;;;;;;;773282;182;634777;-64
2022/01/05 08:24:56;;;;;;;34.27;22.07;;;;;;;;;;774758;182;919258;-64
2022/01/05 08:27:22;;;;;;;31.33;19.63;;;;;;;;;;769684;182;919484;-64
2022/01/05 08:29:48;;;;;;;36.70;21.73;;;;;;;;;;767886;183;918852;-64
2022/01/05 08:32:14;;;;;;;27.97;19.30;;;;;;;;;;772507;183;918333;-64
2022/01/05 08:34:40;;;;;;;28.73;19.37;;;;;;;;;;769828;182;920109;-65
2022/01/05 08:37:06;;;;;;;29.60;19.83;;;;;;;;;;765736;182;921544;-65
2022/01/05 08:39:31;;;;;;;24.40;18.57;;;;;;;;;;770413;182;919558;-64
2022/01/05 08:41:57;;;;;;;26.92;19.45;;;;;;;;;;765953;182;919072;-65
2022/01/05 08:44:23;;;;;;;30.83;21.40;;;;;;;;;;765004;183;919971;-64
2022/01/05 08:46:49;;;;;;;31.60;19.10;;;;;;;;;;763449;183;1020167;-64
2022/01/05 08:49:15;;;;;;;26.12;15.95;;;;;;;;;;772549;183;917839;-65
2022/01/05 08:51:41;;;;;;;26.63;15.97;;;;;;;;;;767397;183;918072;-65
2022/01/05 08:54:07;;;;;;;23.33;16.30;;;;;;;;;;766353;182;919665;-64
2022/01/05 08:56:32;;;;;;;23.67;15.50;;;;;;;;;;772762;183;918509;-65
2022/01/05 08:58:58;;;;;;;19.60;14.20;;;;;;;;;;763669;182;939399;-65
2022/01/05 09:01:24;;;;;;;22.13;14.70;;;;;;;;;;765404;182;919444;-63
2022/01/05 09:03:52;;;;;;;18.10;12.37;;;;;;;;;;772221;182;918965;-64
2022/01/05 09:06:16;;;;;;;17.50;12.47;;;;;;;;;;767533;182;919168;-64
2022/01/05 09:08:42;;;;;;;22.27;13.43;;;;;;;;;;766644;182;919425;-66
2022/01/05 09:11:08;;;;;;;18.27;11.20;;;;;;;;;;765576;183;918846;-64
2022/01/05 09:13:34;;;;;;;20.87;14.03;;;;;;;;;;765685;184;918338;-64
2022/01/05 09:16:00;;;;;;;22.60;13.27;;;;;;;;;;761359;184;918744;-63
2022/01/05 09:18:25;;;;;;;23.33;14.20;;;;;;;;;;755568;184;919731;-64
2022/01/05 09:20:52;;;;;;;17.30;12.47;;;;;;;;;;760564;184;879295;-63
2022/01/05 09:23:17;;;;;;;20.60;14.13;;;;;;;;;;736123;190;915908;-63
2022/01/05 09:25:43;;;;;;;21.30;14.80;;;;;;;;;;766854;182;915294;-64
2022/01/05 09:28:09;;;;;;;20.57;14.00;;;;;;;;;;771987;183;916103;-64
2022/01/05 09:30:35;;;;;;;18.70;13.37;;;;;;;;;;765547;182;919969;-64
2022/01/05 09:33:00;;;;;;;24.10;13.47;;;;;;;;;;767212;182;955308;-64
2022/01/05 09:35:27;;;;;;;17.62;13.05;;;;;;;;;;768132;182;918349;-63
2022/01/05 09:38:06;;;;;;;17.23;10.87;;;;;;;;;;763143;183;918538;-63
2022/01/05 09:42:51;;;;;;;20.37;12.33;;;;;;;;;;768710;182;917411;-64
2022/01/05 09:45:19;;;;;;;17.10;10.60;;;;;;;;;;771178;182;918907;-64
2022/01/05 09:47:47;;;;;;;16.57;11.37;;;;;;;;;;766463;183;918998;-63
2022/01/05 09:50:15;;;;;;;14.43;10.83;;;;;;;;;;765564;183;919822;-64
2022/01/05 09:52:40;;;;;;;14.02;10.55;;;;;;;;;;765662;183;920669;-63
2022/01/05 09:55:07;;;;;;;14.37;9.40;;;;;;;;;;771093;183;918181;-64
2022/01/05 09:57:32;;;;;;;17.63;9.33;;;;;;;;;;764933;183;1022922;-63
2022/01/05 09:59:58;;;;;;;19.23;10.13;;;;;;;;;;767010;183;920293;-63
2022/01/05 10:02:24;;;;;;;14.43;9.73;;;;;;;;;;772571;183;919741;-63
2022/01/05 10:04:50;;;;;;;15.63;10.63;;;;;;;;;;761561;183;919866;-64
2022/01/05 10:07:16;;;;;;;14.57;9.73;;;;;;;;;;766055;183;916558;-64
2022/01/05 10:09:42;;;;;;;14.98;9.90;;;;;;;;;;769386;183;933062;-62
2022/01/05 10:12:09;;;;;;;17.43;10.10;;;;;;;;;;765754;183;920232;-63
2022/01/05 10:14:34;;;;;;;12.82;9.02;;;;;;;;;;762913;183;919748;-63
2022/01/05 10:17:01;;;;;;;14.27;10.30;;;;;;;;;;765875;183;919996;-63
2022/01/05 10:19:26;;;;;;;14.47;9.27;;;;;;;;;;771136;183;918800;-64
2022/01/05 10:21:52;;;;;;;14.20;10.00;;;;;;;;;;767092;183;918620;-64
2022/01/05 10:24:18;;;;;;;13.50;10.57;;;;;;;;;;768326;183;919641;-63
2022/01/05 10:26:44;;;;;;;18.13;9.27;;;;;;;;;;772230;183;919544;-63
2022/01/05 10:29:14;;;;;;;14.67;8.90;;;;;;;;;;768139;182;920175;-64
2022/01/05 10:31:40;;;;;;;11.77;8.40;;;;;;;;;;768486;179;919140;-64
2022/01/05 10:34:12;;;;;;;12.87;7.57;;;;;;;;;;764588;182;919027;-63
2022/01/05 10:36:41;;;;;;;14.70;7.80;;;;;;;;;;770528;183;917895;-65
2022/01/05 10:39:07;;;;;;;12.67;7.63;;;;;;;;;;766855;182;918994;-63
2022/01/05 10:41:33;;;;;;;11.15;7.18;;;;;;;;;;764954;182;919455;-63
2022/01/05 10:44:05;;;;;;;11.07;7.23;;;;;;;;;;766752;182;920025;-65
2022/01/05 10:46:32;;;;;;;10.60;7.47;;;;;;;;;;770982;182;918039;-63
2022/01/05 10:48:57;;;;;;;12.43;7.67;;;;;;;;;;762151;182;919274;-64
2022/01/05 10:51:23;;;;;;;13.60;7.70;;;;;;;;;;765677;182;919653;-63
2022/01/05 10:53:49;;;;;;;11.03;6.43;;;;;;;;;;771027;182;918918;-64
2022/01/05 10:56:15;;;;;;;9.37;6.47;;;;;;;;;;762905;183;919231;-63
2022/01/05 10:58:41;;;;;;;12.23;7.72;;;;;;;;;;760924;183;918894;-63
2022/01/05 11:01:07;;;;;;;11.00;6.77;;;;;;;;;;766787;182;919568;-64
2022/01/05 11:03:35;;;;;;;10.07;5.93;;;;;;;;;;774196;180;918733;-64
2022/01/05 11:06:01;;;;;;;10.37;6.80;;;;;;;;;;767590;182;918689;-63
2022/01/05 11:08:27;;;;;;;9.77;6.40;;;;;;;;;;767077;182;918374;-63
2022/01/05 11:10:53;;;;;;;14.10;7.60;;;;;;;;;;775427;183;918430;-63
2022/01/05 11:13:18;;;;;;;10.90;6.03;;;;;;;;;;766756;182;919090;-64
2022/01/05 11:15:44;;;;;;;11.93;6.10;;;;;;;;;;766499;179;919158;-63
2022/01/05 11:18:13;;;;;;;11.07;6.13;;;;;;;;;;771231;182;924969;-64
2022/01/05 11:20:43;;;;;;;13.10;6.57;;;;;;;;;;769162;183;919304;-63
2022/01/05 11:23:08;;;;;;;10.60;6.90;;;;;;;;;;762872;182;919841;-63
2022/01/05 11:25:34;;;;;;;9.10;6.00;;;;;;;;;;767284;182;917818;-63
2022/01/05 11:28:00;;;;;;;11.10;6.30;;;;;;;;;;773298;182;918320;-63
2022/01/05 11:30:26;;;;;;;13.00;7.90;;;;;;;;;;766928;183;918916;-64
2022/01/05 11:32:52;;;;;;;8.97;5.53;;;;;;;;;;766701;182;920224;-63
2022/01/05 11:35:18;;;;;;;7.90;5.40;;;;;;;;;;770671;180;918331;-63
2022/01/05 11:37:43;;;;;;;8.93;6.13;;;;;;;;;;765121;183;919038;-64
2022/01/05 11:40:09;;;;;;;8.73;5.00;;;;;;;;;;765050;183;919758;-63
2022/01/05 11:42:35;;;;;;;8.03;5.27;;;;;;;;;;765890;183;919793;-63
2022/01/05 11:45:01;;;;;;;8.03;4.73;;;;;;;;;;766931;182;918665;-64
2022/01/05 11:47:27;;;;;;;8.53;4.67;;;;;;;;;;765325;183;919069;-63
2022/01/05 11:49:53;;;;;;;8.00;4.40;;;;;;;;;;767644;182;918319;-64
2022/01/05 11:52:19;;;;;;;7.70;4.23;;;;;;;;;;771698;182;1017942;-63
2022/01/05 11:54:50;;;;;;;6.30;4.00;;;;;;;;;;771753;181;919274;-67
2022/01/05 11:57:16;;;;;;;5.65;3.90;;;;;;;;;;768285;182;918811;-64
2022/01/05 11:59:42;;;;;;;4.90;4.00;;;;;;;;;;766268;182;913227;-63
2022/01/05 12:02:09;;;;;;;5.87;3.45;;;;;;;;;;767675;182;914255;-64
2022/01/05 12:04:50;;;;;;;6.77;3.40;;;;;;;;;;769202;182;915912;-63
2022/01/05 12:07:16;;;;;;;6.13;4.30;;;;;;;;;;768120;182;920382;-63
2022/01/05 12:09:42;;;;;;;5.90;3.47;;;;;;;;;;767830;182;919689;-63
2022/01/05 12:12:23;;;;;;;5.83;3.37;;;;;;;;;;772899;183;918910;-63
2022/01/05 12:14:48;;;;;;;5.33;3.23;;;;;;;;;;772773;183;919371;-64
2022/01/05 12:17:14;;;;;;;5.60;3.87;;;;;;;;;;760522;183;919990;-62
2022/01/05 12:19:56;;;;;;;5.18;2.95;;;;;;;;;;764487;183;918909;-64
2022/01/05 12:22:25;;;;;;;5.90;3.03;;;;;;;;;;764530;183;919473;-63
2022/01/05 12:25:09;;;;;;;6.93;4.30;;;;;;;;;;771044;182;919927;-64
2022/01/05 12:27:33;;;;;;;7.43;4.50;;;;;;;;;;765872;183;918834;-64
2022/01/05 12:29:59;;;;;;;6.83;3.30;;;;;;;;;;766785;182;918901;-63
2022/01/05 12:32:31;;;;;;;6.50;3.40;;;;;;;;;;767545;183;919328;-64
2022/01/05 12:34:57;;;;;;;5.13;3.57;;;;;;;;;;766386;182;918430;-62
2022/01/05 12:37:38;;;;;;;5.30;3.37;;;;;;;;;;771543;182;919274;-64
2022/01/05 12:40:09;;;;;;;4.93;3.20;;;;;;;;;;769554;182;965709;-63
2022/01/05 12:42:35;;;;;;;5.67;3.90;;;;;;;;;;768751;182;925280;-62
2022/01/05 12:45:01;;;;;;;6.47;3.57;;;;;;;;;;767941;182;920138;-63
2022/01/05 12:47:33;;;;;;;5.75;3.70;;;;;;;;;;773700;182;921665;-62
2022/01/05 12:50:15;;;;;;;6.53;4.13;;;;;;;;;;765903;183;918697;-63
2022/01/05 12:52:40;;;;;;;6.33;3.63;;;;;;;;;;769553;183;918386;-64
2022/01/05 12:55:07;;;;;;;5.13;3.10;;;;;;;;;;766729;182;918745;-64
2022/01/05 12:57:32;;;;;;;6.00;3.50;;;;;;;;;;762396;182;918542;-64
2022/01/05 12:59:57;;;;;;;5.40;3.50;;;;;;;;;;767841;183;918180;-64
2022/01/05 13:02:27;;;;;;;4.70;3.30;;;;;;;;;;767276;182;918614;-68
2022/01/05 13:04:50;;;;;;;5.30;3.50;;;;;;;;;;766963;182;919155;-64
2022/01/05 13:07:17;;;;;;;5.83;4.03;;;;;;;;;;774454;180;918968;-62
2022/01/05 13:09:45;;;;;;;5.17;3.10;;;;;;;;;;769061;182;939707;-64
2022/01/05 13:12:12;;;;;;;7.23;3.77;;;;;;;;;;764758;182;919003;-64
2022/01/05 13:14:37;;;;;;;6.25;3.72;;;;;;;;;;764116;182;1021909;-65
2022/01/05 13:17:04;;;;;;;6.20;3.73;;;;;;;;;;773520;183;919460;-64
2022/01/05 13:19:35;;;;;;;5.17;3.23;;;;;;;;;;771883;183;917416;-64
2022/01/05 13:22:04;;;;;;;6.10;3.73;;;;;;;;;;765172;182;896949;-63
2022/01/05 13:24:35;;;;;;;6.90;3.67;;;;;;;;;;769467;182;920109;-68
2022/01/05 13:27:01;;;;;;;4.80;3.00;;;;;;;;;;772257;182;918626;-64
2022/01/05 13:29:28;;;;;;;5.60;3.87;;;;;;;;;;770974;182;917008;-65
2022/01/05 13:31:55;;;;;;;5.27;3.83;;;;;;;;;;768605;182;918524;-64
2022/01/05 13:34:27;;;;;;;7.47;5.10;;;;;;;;;;765171;182;918471;-64
2022/01/05 13:36:52;;;;;;;7.97;4.50;;;;;;;;;;773389;180;919365;-64
2022/01/05 13:39:18;;;;;;;7.60;4.62;;;;;;;;;;769017;182;1021660;-65
2022/01/05 13:41:50;;;;;;;7.40;4.57;;;;;;;;;;760363;182;918058;-68
2022/01/05 13:44:16;;;;;;;7.90;4.97;;;;;;;;;;767555;183;919007;-64
2022/01/05 13:46:42;;;;;;;8.47;4.90;;;;;;;;;;762524;184;918984;-64
2022/01/05 13:49:15;;;;;;;9.60;5.37;;;;;;;;;;764803;182;919146;-65
2022/01/05 13:51:41;;;;;;;6.27;4.20;;;;;;;;;;765221;181;923627;-64
2022/01/05 13:54:07;;;;;;;8.27;4.97;;;;;;;;;;772153;182;919780;-64
2022/01/05 13:56:39;;;;;;;6.97;5.70;;;;;;;;;;766404;182;918391;-64
2022/01/05 13:59:04;;;;;;;7.33;4.57;;;;;;;;;;761099;182;919368;-64
2022/01/05 14:01:32;;;;;;;6.03;3.87;;;;;;;;;;767415;182;924959;-64
2022/01/05 14:03:57;;;;;;;6.00;3.80;;;;;;;;;;773004;182;920379;-64
2022/01/05 14:06:22;;;;;;;6.00;3.50;;;;;;;;;;759320;183;920172;-64
2022/01/05 14:08:48;;;;;;;6.63;3.57;;;;;;;;;;753240;183;917549;-63
2022/01/05 14:11:14;;;;;;;5.93;3.60;;;;;;;;;;770975;183;919551;-64
2022/01/05 14:13:40;;;;;;;6.23;3.97;;;;;;;;;;762722;183;1020547;-65
2022/01/05 14:16:07;;;;;;;4.72;2.95;;;;;;;;;;766523;182;920253;-64